Kur, Russia
Current Conditions -  °F | °C
As of 10:30 AM on Tuesday 21 Oct 2014 (Local Time) from UHHH Reporting Station
Clear Clear  
Wind Chill: 17°   Ceiling: Unl
Heat Index: 28°   Visibility: 6mi
Dew Point: -2°   Wind: 16mph
Humidity: 27%   Direction: 270°W
Pressure: 30.21"   Gusts: 22mph
Location:  49.93°N, 134.63°E
Report Text: UHHH 210030Z 27007G10MPS CAVOK M02/M19 Q1023 NOSIG RMKQFE760/1014 23090060
Loading
Personal Weather Stations






























Interactive Weather Map
Tropical Storm Tracking
New forecast layout! Learn more

10-Day Weather Forecast

Advertisements
Track Severe Weather on mobile